createdAt,value
2023-01-31T00:01:11.107Z,-0.95
2023-01-31T00:03:37.797Z,-0.95
2023-01-31T00:06:04.258Z,-0.95
2023-01-31T00:08:30.652Z,-0.96
2023-01-31T00:10:57.034Z,-1.02
2023-01-31T00:13:23.441Z,-1.06
2023-01-31T00:15:49.834Z,-1.02
2023-01-31T00:18:16.478Z,-1.02
2023-01-31T00:20:42.917Z,-1.01
2023-01-31T00:23:10.432Z,-1.01
2023-01-31T00:25:37.675Z,-1.05
2023-01-31T00:28:04.307Z,-1.07
2023-01-31T00:30:31.414Z,-1.06
2023-01-31T00:32:57.821Z,-1.01
2023-01-31T00:35:24.211Z,-1.10
2023-01-31T00:37:50.781Z,-1.16
2023-01-31T00:40:17.213Z,-1.09
2023-01-31T00:42:43.782Z,-1.08
2023-01-31T00:45:10.488Z,-1.12
2023-01-31T00:47:37.648Z,-1.14
2023-01-31T00:50:04.035Z,-1.14
2023-01-31T00:52:35.261Z,-1.13
2023-01-31T00:55:01.788Z,-1.16
2023-01-31T00:57:28.137Z,-1.16
2023-01-31T00:59:54.682Z,-1.16
2023-01-31T01:02:24.146Z,-1.15
2023-01-31T01:04:50.544Z,-1.15
2023-01-31T01:07:17.433Z,-1.14
2023-01-31T01:09:43.784Z,-1.16
2023-01-31T01:12:11.156Z,-1.18
2023-01-31T01:14:37.514Z,-1.18
2023-01-31T01:17:04.151Z,-1.16
2023-01-31T01:19:31.068Z,-1.15
2023-01-31T01:21:57.489Z,-1.18
2023-01-31T01:24:24.221Z,-1.23
2023-01-31T01:26:51.643Z,-1.27
2023-01-31T01:29:18.027Z,-1.27
2023-01-31T01:31:45.597Z,-1.29
2023-01-31T01:34:12.253Z,-1.27
2023-01-31T01:36:38.641Z,-1.27
2023-01-31T01:39:05.037Z,-1.28
2023-01-31T01:41:32.044Z,-1.34
2023-01-31T01:43:58.501Z,-1.38
2023-01-31T01:46:26.791Z,-1.38
2023-01-31T01:48:53.534Z,-1.44
2023-01-31T01:51:19.959Z,-1.47
2023-01-31T01:53:46.435Z,-1.47
2023-01-31T01:56:12.774Z,-1.52
2023-01-31T01:58:39.111Z,-1.53
2023-01-31T02:01:05.517Z,-1.53
2023-01-31T02:03:32.004Z,-1.51
2023-01-31T02:05:58.350Z,-1.45
2023-01-31T02:08:24.752Z,-1.42
2023-01-31T02:10:51.737Z,-1.35
2023-01-31T02:13:18.115Z,-1.28
2023-01-31T02:15:44.496Z,-1.17
2023-01-31T02:18:13.233Z,-1.07
2023-01-31T02:20:39.709Z,-0.99
2023-01-31T02:23:06.093Z,-0.95
2023-01-31T02:25:32.474Z,-0.90
2023-01-31T02:27:58.944Z,-0.85
2023-01-31T02:30:25.540Z,-0.82
2023-01-31T02:32:51.929Z,-0.78
2023-01-31T02:35:18.828Z,-0.76
2023-01-31T02:37:45.553Z,-0.72
2023-01-31T02:40:12.040Z,-0.68
2023-01-31T02:42:38.410Z,-0.67
2023-01-31T02:45:04.768Z,-0.66
2023-01-31T02:47:31.117Z,-0.69
2023-01-31T02:49:59.725Z,-0.73
2023-01-31T02:52:26.111Z,-0.79
2023-01-31T02:54:52.567Z,-0.78
2023-01-31T02:57:19.129Z,-0.70
2023-01-31T02:59:45.460Z,-0.72
2023-01-31T03:02:11.831Z,-0.80
2023-01-31T03:04:38.221Z,-0.83
2023-01-31T03:07:04.604Z,-0.84
2023-01-31T03:09:31.331Z,-0.87
2023-01-31T03:11:57.774Z,-0.85
2023-01-31T03:14:24.240Z,-0.89
2023-01-31T03:16:50.620Z,-0.93
2023-01-31T03:19:18.593Z,-0.97
2023-01-31T03:21:45.001Z,-1.02
2023-01-31T03:24:11.421Z,-1.02
2023-01-31T03:26:37.801Z,-1.04
2023-01-31T03:29:04.224Z,-1.09
2023-01-31T03:31:30.819Z,-1.09
2023-01-31T03:33:57.289Z,-1.10
2023-01-31T03:36:23.673Z,-1.08
2023-01-31T03:38:50.057Z,-1.09
2023-01-31T03:41:17.362Z,-1.10
2023-01-31T03:43:43.904Z,-1.10
2023-01-31T03:46:10.309Z,-1.10
2023-01-31T03:48:36.720Z,-1.06
2023-01-31T03:51:03.095Z,-1.01
2023-01-31T03:53:29.616Z,-1.00
2023-01-31T03:55:55.960Z,-1.00
2023-01-31T03:58:22.332Z,-1.03
2023-01-31T04:00:48.718Z,-0.97
2023-01-31T04:03:19.390Z,-0.90
2023-01-31T04:05:45.748Z,-0.86
2023-01-31T04:08:12.395Z,-0.79
2023-01-31T04:10:39.811Z,-0.71
2023-01-31T04:13:06.168Z,-0.66
2023-01-31T04:15:32.698Z,-0.60
2023-01-31T04:17:59.056Z,-0.53
2023-01-31T04:20:25.398Z,-0.47
2023-01-31T04:22:51.747Z,-0.42
2023-01-31T04:25:18.869Z,-0.36
2023-01-31T04:27:45.455Z,-0.32
2023-01-31T04:30:11.955Z,-0.32
2023-01-31T04:32:38.367Z,-0.30
2023-01-31T04:35:04.793Z,-0.25
2023-01-31T04:37:31.163Z,-0.25
2023-01-31T04:39:57.995Z,-0.22
2023-01-31T04:42:24.390Z,-0.23
2023-01-31T04:44:50.739Z,-0.24
2023-01-31T04:47:17.073Z,-0.20
2023-01-31T04:49:43.476Z,-0.26
2023-01-31T04:52:12.152Z,-0.27
2023-01-31T04:54:38.532Z,-0.28
2023-01-31T04:57:04.971Z,-0.26
2023-01-31T04:59:31.596Z,-0.26
2023-01-31T05:01:57.966Z,-0.27
2023-01-31T05:04:24.539Z,-0.29
2023-01-31T05:06:50.942Z,-0.30
2023-01-31T05:09:18.610Z,-0.34
2023-01-31T05:11:45.056Z,-0.34
2023-01-31T05:14:11.414Z,-0.35
2023-01-31T05:16:37.984Z,-0.36
2023-01-31T05:19:04.401Z,-0.37
2023-01-31T05:21:31.451Z,-0.37
2023-01-31T05:23:57.831Z,-0.38
2023-01-31T05:26:24.261Z,-0.42
2023-01-31T05:28:50.655Z,-0.53
2023-01-31T05:31:17.519Z,-0.52
2023-01-31T05:33:43.949Z,-0.53
2023-01-31T05:36:10.452Z,-0.57
2023-01-31T05:38:39.393Z,-0.58
2023-01-31T05:41:05.875Z,-0.53
2023-01-31T05:43:32.486Z,-0.57
2023-01-31T05:45:58.994Z,-0.58
2023-01-31T05:48:25.391Z,-0.57
2023-01-31T05:50:51.759Z,-0.59
2023-01-31T05:53:18.097Z,-0.61
2023-01-31T05:55:44.496Z,-0.61
2023-01-31T05:58:11.248Z,-0.63
2023-01-31T06:00:37.693Z,-0.66
2023-01-31T06:03:04.073Z,-0.65
2023-01-31T06:05:30.931Z,-0.75
2023-01-31T06:07:57.637Z,-0.79
2023-01-31T06:10:24.004Z,-0.80
2023-01-31T06:12:50.395Z,-0.79
2023-01-31T06:15:19.127Z,-0.80
2023-01-31T06:17:45.836Z,-0.86
2023-01-31T06:20:12.206Z,-0.91
2023-01-31T06:22:38.616Z,-0.93
2023-01-31T06:25:05.278Z,-0.97
2023-01-31T06:27:31.931Z,-1.02
2023-01-31T06:29:58.390Z,-1.03
2023-01-31T06:32:24.775Z,-1.07
2023-01-31T06:34:51.185Z,-1.11
2023-01-31T06:37:17.603Z,-1.16
2023-01-31T06:39:43.993Z,-1.17
2023-01-31T06:42:10.330Z,-1.15
2023-01-31T06:44:37.813Z,-1.22
2023-01-31T06:47:04.183Z,-1.29
2023-01-31T06:49:30.577Z,-1.34
2023-01-31T06:51:57.976Z,-1.33
2023-01-31T06:54:25.663Z,-1.38
2023-01-31T06:56:52.138Z,-1.42
2023-01-31T06:59:20.841Z,-1.44
2023-01-31T07:01:47.263Z,-1.44
2023-01-31T07:04:13.648Z,-1.53
2023-01-31T07:06:40.063Z,-1.58
2023-01-31T07:09:07.384Z,-1.63
2023-01-31T07:11:33.811Z,-1.70
2023-01-31T07:14:00.198Z,-1.74
2023-01-31T07:16:26.630Z,-1.79
2023-01-31T07:18:53.118Z,-1.80
2023-01-31T07:21:19.508Z,-1.84
2023-01-31T07:23:45.867Z,-1.85
2023-01-31T07:26:19.749Z,-1.80
2023-01-31T07:28:46.132Z,-1.78
2023-01-31T07:31:14.815Z,-1.82
2023-01-31T07:33:41.896Z,-1.81
2023-01-31T07:36:08.326Z,-1.79
2023-01-31T07:38:34.813Z,-1.77
2023-01-31T07:41:02.300Z,-1.77
2023-01-31T07:43:29.975Z,-1.68
2023-01-31T07:45:56.508Z,-1.67
2023-01-31T07:48:22.928Z,-1.69
2023-01-31T07:50:49.447Z,-1.67
2023-01-31T07:53:20.222Z,-1.62
2023-01-31T07:55:46.618Z,-1.53
2023-01-31T07:58:13.007Z,-1.45
2023-01-31T08:00:39.418Z,-1.27
2023-01-31T08:03:06.054Z,-1.24
2023-01-31T08:05:32.449Z,-1.28
2023-01-31T08:07:59.365Z,-1.25
2023-01-31T08:10:25.710Z,-1.25
2023-01-31T08:12:53.133Z,-1.25
2023-01-31T08:15:19.766Z,-1.25
2023-01-31T08:17:46.376Z,-1.23
2023-01-31T08:20:12.798Z,-1.21
2023-01-31T08:22:39.187Z,-1.19
2023-01-31T08:25:05.533Z,-1.18
2023-01-31T08:27:31.921Z,-1.13
2023-01-31T08:29:58.283Z,-1.10
2023-01-31T08:32:24.716Z,-1.06
2023-01-31T08:34:51.140Z,-1.08
2023-01-31T08:37:18.695Z,-1.02
2023-01-31T08:39:45.351Z,-0.95
2023-01-31T08:42:11.704Z,-0.90
2023-01-31T08:44:38.043Z,-0.80
2023-01-31T08:47:04.557Z,-0.73
2023-01-31T08:49:31.409Z,-0.63
2023-01-31T08:51:57.898Z,-0.51
2023-01-31T08:54:26.779Z,-0.30
2023-01-31T08:56:53.109Z,-0.22
2023-01-31T08:59:19.487Z,-0.28
2023-01-31T09:01:45.931Z,-0.29
2023-01-31T09:04:12.568Z,-0.26
2023-01-31T09:06:39.022Z,-0.15
2023-01-31T09:09:05.424Z,-0.13
2023-01-31T09:11:31.788Z,-0.02
2023-01-31T09:13:58.599Z,0.09
2023-01-31T09:16:25.084Z,0.21
2023-01-31T09:18:51.489Z,0.36
2023-01-31T09:21:17.839Z,0.51
2023-01-31T09:23:44.182Z,0.67
2023-01-31T09:26:10.710Z,0.89
2023-01-31T09:28:37.837Z,1.09
2023-01-31T09:31:04.458Z,1.10
2023-01-31T09:33:31.027Z,1.19
2023-01-31T09:35:57.653Z,1.33
2023-01-31T09:38:24.383Z,1.46
2023-01-31T09:40:50.766Z,1.61
2023-01-31T09:43:19.226Z,1.73
2023-01-31T09:45:45.627Z,1.84
2023-01-31T09:48:12.174Z,1.96
2023-01-31T09:50:38.524Z,2.07
2023-01-31T09:53:05.136Z,2.10
2023-01-31T09:55:31.819Z,2.21
2023-01-31T09:57:58.547Z,2.36
2023-01-31T10:00:24.973Z,2.50
2023-01-31T10:02:51.351Z,2.66
2023-01-31T10:05:17.900Z,2.80
2023-01-31T10:07:44.592Z,2.91
2023-01-31T10:10:13.252Z,3.03
2023-01-31T10:12:39.680Z,2.96
2023-01-31T10:15:06.025Z,2.92
2023-01-31T10:17:32.738Z,2.82
2023-01-31T10:19:59.151Z,2.94
2023-01-31T10:22:25.490Z,3.00
2023-01-31T10:24:58.981Z,3.13
2023-01-31T10:27:25.375Z,3.29
2023-01-31T10:29:51.955Z,3.51
2023-01-31T10:32:18.340Z,3.66
2023-01-31T10:34:44.773Z,3.79
2023-01-31T10:37:11.121Z,3.95
2023-01-31T10:39:37.488Z,4.09
2023-01-31T10:42:03.908Z,4.20
2023-01-31T10:44:30.668Z,4.31
2023-01-31T10:46:57.345Z,4.21
2023-01-31T10:49:23.688Z,4.40
2023-01-31T10:51:50.158Z,4.44
2023-01-31T10:54:17.537Z,4.60
2023-01-31T10:56:43.995Z,4.78
2023-01-31T10:59:10.350Z,4.71
2023-01-31T11:01:36.739Z,4.84
2023-01-31T11:04:03.168Z,4.90
2023-01-31T11:06:29.516Z,4.96
2023-01-31T11:08:55.914Z,4.90
2023-01-31T23:09:53.853Z,0.81
